Time;durP1;ratioP1;P1;durP2;ratioP2;P2;SDS_P1;SDS_P2;PMS_P1;PMS_P2;Temp;Humidity;BMP_temperature;BMP_pressure;BME280_temperature;BME280_humidity;BME280_pressure;Samples;Min_cycle;Max_cycle;Signal;HPM_P1;HPM_P2
2023/07/10 00:02:01;;;;;;;8.20;7.50;;;;;;;14.33;100.00;97671.83;110440;1238;59687;-64
2023/07/10 00:04:30;;;;;;;8.40;7.30;;;;;;;14.25;100.00;97670.48;110449;1242;59754;-64
2023/07/10 00:06:59;;;;;;;;;;;;;;;14.19;100.00;97672.04;110541;1238;71316;-64
2023/07/10 00:09:29;;;;;;;6.40;5.80;;;;;;;14.13;100.00;97674.83;110554;1239;70044;-64
2023/07/10 00:11:59;;;;;;;8.30;7.40;;;;;;;14.10;100.00;97676.52;110381;1242;69200;-64
2023/07/10 00:14:30;;;;;;;8.90;8.00;;;;;;;14.06;100.00;97670.02;110312;1241;59680;-64
2023/07/10 00:16:59;;;;;;;7.70;7.00;;;;;;;14.02;100.00;97669.09;110359;1241;59706;-65
2023/07/10 00:19:29;;;;;;;8.10;6.30;;;;;;;13.99;100.00;97668.29;110499;1238;70570;-64
2023/07/10 00:21:58;;;;;;;8.40;7.60;;;;;;;13.96;100.00;97668.03;110449;1241;68361;-64
2023/07/10 00:24:31;;;;;;;7.90;7.10;;;;;;;13.94;100.00;97666.62;110455;1241;69029;-65
2023/07/10 00:27:02;;;;;;;8.60;7.80;;;;;;;13.92;100.00;97670.65;110479;1241;59686;-66
2023/07/10 00:29:33;;;;;;;8.00;7.20;;;;;;;13.89;100.00;97672.09;110501;1241;59715;-64
2023/07/10 00:32:09;;;;;;;8.60;7.20;;;;;;;13.87;100.00;97669.17;110440;1241;71673;-66
2023/07/10 00:34:37;;;;;;;7.90;7.10;;;;;;;13.85;100.00;97671.91;110479;1242;67474;-66
2023/07/10 00:37:08;;;;;;;8.40;7.60;;;;;;;13.82;100.00;97673.23;110541;1241;69918;-64
2023/07/10 00:39:38;;;;;;;8.10;7.10;;;;;;;13.80;100.00;97676.88;110422;1241;59742;-64
2023/07/10 00:42:18;;;;;;;9.60;8.70;;;;;;;13.79;100.00;97675.44;110439;1240;59695;-64
2023/07/10 00:44:58;;;;;;;8.90;8.10;;;;;;;13.77;100.00;97676.95;110321;1241;71285;-65
2023/07/10 00:47:38;;;;;;;9.10;8.10;;;;;;;13.75;100.00;97676.95;110357;1241;69283;-64
2023/07/10 00:50:21;;;;;;;9.10;8.20;;;;;;;13.73;100.00;97676.95;110335;1241;69304;-65
2023/07/10 00:52:52;;;;;;;8.90;8.00;;;;;;;13.70;100.00;97674.48;110287;1241;59740;-65
2023/07/10 00:55:29;;;;;;;8.60;7.70;;;;;;;13.69;100.00;97672.70;110450;1241;59707;-65
2023/07/10 00:58:21;;;;;;;8.20;7.30;;;;;;;13.68;100.00;97673.27;110408;1241;72045;-65
2023/07/10 01:00:59;;;;;;;8.40;7.50;;;;;;;13.67;100.00;97676.89;110464;1241;69685;-65
2023/07/10 01:03:28;;;;;;;7.50;6.80;;;;;;;13.64;100.00;97673.29;110612;1241;69310;-65
2023/07/10 01:05:59;;;;;;;;;;;;;;;13.62;100.00;97676.55;110489;1241;59663;-65
2023/07/10 01:08:31;;;;;;;9.50;7.90;;;;;;;13.61;100.00;97675.30;110459;1240;59688;-65
2023/07/10 01:11:03;;;;;;;9.20;7.70;;;;;;;13.59;100.00;97675.61;110370;1241;71360;-66
2023/07/10 01:13:37;;;;;;;9.50;8.60;;;;;;;13.57;100.00;97674.76;110333;1240;69195;-66
2023/07/10 01:16:06;;;;;;;9.10;8.20;;;;;;;13.55;100.00;97675.80;110615;1240;69389;-65
2023/07/10 01:18:38;;;;;;;8.80;7.80;;;;;;;13.51;100.00;97678.72;110634;1241;59750;-65
2023/07/10 01:21:27;;;;;;;9.00;7.60;;;;;;;13.48;100.00;97680.37;110286;1240;59708;-64
2023/07/10 01:23:59;;;;;;;8.50;7.60;;;;;;;13.44;100.00;97682.40;110147;1244;71469;-64
2023/07/10 01:26:29;;;;;;;9.30;8.40;;;;;;;13.40;100.00;97683.80;110450;1238;69799;-65
2023/07/10 01:28:59;;;;;;;10.00;9.00;;;;;;;13.37;100.00;97683.17;110466;1241;68337;-64
2023/07/10 01:31:31;;;;;;;10.20;9.20;;;;;;;13.36;100.00;97684.48;110467;1245;59759;-64
2023/07/10 01:34:05;;;;;;;9.90;8.90;;;;;;;13.35;100.00;97687.66;110304;1248;59768;-65
2023/07/10 01:36:39;;;;;;;9.20;8.40;;;;;;;13.33;100.00;97688.55;110253;1242;70745;-65
2023/07/10 01:39:12;;;;;;;9.30;8.30;;;;;;;13.39;100.00;97695.45;110600;1241;69223;-65
2023/07/10 01:41:44;;;;;;;11.20;9.60;;;;;;;13.39;100.00;97698.58;110486;1240;69207;-65
2023/07/10 01:44:30;;;;;;;10.90;9.80;;;;;;;13.36;100.00;97700.90;110354;1240;59720;-65
2023/07/10 01:47:02;;;;;;;11.20;10.10;;;;;;;13.24;100.00;97701.86;110346;1241;59684;-65
2023/07/10 01:49:40;;;;;;;9.60;8.60;;;;;;;13.15;100.00;97704.80;110320;1239;70623;-65
2023/07/10 01:52:13;;;;;;;10.80;9.80;;;;;;;13.11;100.00;97710.00;110369;1241;69784;-65
2023/07/10 01:54:43;;;;;;;10.70;9.70;;;;;;;13.07;100.00;97712.64;110218;1241;67720;-65
2023/07/10 01:57:15;;;;;;;10.70;9.60;;;;;;;13.06;100.00;97716.40;110461;1239;59680;-65
2023/07/10 01:59:46;;;;;;;10.80;9.10;;;;;;;13.04;100.00;97713.73;110304;1242;59668;-65
2023/07/10 02:02:18;;;;;;;9.10;8.20;;;;;;;13.03;100.00;97712.03;110388;1241;70572;-65
2023/07/10 02:04:49;;;;;;;9.10;8.10;;;;;;;13.09;100.00;97714.55;110268;1242;69357;-66
2023/07/10 02:07:21;;;;;;;9.90;8.80;;;;;;;13.20;100.00;97713.86;110447;1241;68523;-64
2023/07/10 02:09:52;;;;;;;10.50;9.40;;;;;;;13.21;100.00;97716.57;110223;1238;59741;-66
2023/07/10 02:12:26;;;;;;;10.10;8.90;;;;;;;13.16;100.00;97716.11;110255;1242;59697;-64
2023/07/10 02:14:54;;;;;;;10.30;9.10;;;;;;;13.00;100.00;97715.45;110466;1241;71411;-66
2023/07/10 02:17:23;;;;;;;10.90;9.30;;;;;;;12.97;100.00;97716.35;110613;1241;69254;-64
2023/07/10 02:19:52;;;;;;;11.10;9.80;;;;;;;12.92;100.00;97717.42;110382;1241;69190;-64
2023/07/10 02:22:22;;;;;;;11.10;9.90;;;;;;;12.90;100.00;97714.96;110364;1241;59762;-64
2023/07/10 02:24:52;;;;;;;12.40;11.20;;;;;;;12.89;100.00;97712.08;110160;1245;59742;-64
2023/07/10 02:27:22;;;;;;;13.80;11.50;;;;;;;12.88;100.00;97712.36;110395;1242;70656;-63
2023/07/10 02:29:52;;;;;;;12.50;11.20;;;;;;;12.86;100.00;97714.42;110452;1241;68514;-64
2023/07/10 02:32:21;;;;;;;12.70;11.40;;;;;;;12.91;100.00;97715.91;110297;1241;69912;-64
2023/07/10 02:34:52;;;;;;;14.00;12.50;;;;;;;13.02;100.00;97713.89;110321;1240;60206;-66
2023/07/10 02:37:24;;;;;;;12.30;11.10;;;;;;;13.04;100.00;97716.38;110328;1241;59683;-65
2023/07/10 02:39:57;;;;;;;10.70;8.80;;;;;;;13.03;100.00;97712.96;110390;1241;71384;-64
2023/07/10 02:42:27;;;;;;;10.60;9.60;;;;;;;12.87;100.00;97704.05;110257;1241;69129;-64
2023/07/10 02:44:56;;;;;;;;;;;;;;;12.78;100.00;97701.06;110142;1245;69350;-66
2023/07/10 02:47:25;;;;;;;10.60;9.50;;;;;;;12.74;100.00;97703.58;110360;1241;59705;-65
2023/07/10 02:49:54;;;;;;;10.50;8.90;;;;;;;12.85;100.00;97706.27;110432;1241;59693;-66
2023/07/10 02:52:23;;;;;;;12.70;10.60;;;;;;;12.85;100.00;97702.60;110325;1242;71857;-64
2023/07/10 02:54:51;;;;;;;11.10;9.90;;;;;;;12.72;100.00;97702.02;110456;1241;69276;-65
2023/07/10 02:57:20;;;;;;;12.20;10.90;;;;;;;12.65;100.00;97699.77;110306;1241;69378;-64
2023/07/10 02:59:49;;;;;;;12.00;10.80;;;;;;;12.64;100.00;97702.33;110507;1243;59724;-64
2023/07/10 03:02:19;;;;;;;11.40;10.00;;;;;;;12.62;100.00;97700.50;110465;1241;59685;-65
2023/07/10 03:04:48;;;;;;;13.60;10.70;;;;;;;12.63;100.00;97694.17;110100;1244;71437;-64
2023/07/10 03:07:17;;;;;;;11.90;10.50;;;;;;;12.64;100.00;97697.39;110411;1241;69186;-64
2023/07/10 03:09:46;;;;;;;12.00;10.70;;;;;;;12.65;100.00;97703.95;110412;1241;68363;-67
2023/07/10 03:12:16;;;;;;;13.00;11.30;;;;;;;12.73;100.00;97704.95;110477;1242;59748;-66
2023/07/10 03:14:44;;;;;;;11.80;10.60;;;;;;;12.69;100.00;97704.52;110318;1242;59704;-66
2023/07/10 03:17:14;;;;;;;10.90;9.70;;;;;;;12.82;100.00;97708.97;110414;1238;71416;-66
2023/07/10 03:19:45;;;;;;;12.50;10.60;;;;;;;12.80;100.00;97701.46;110255;1242;68593;-64
2023/07/10 03:22:14;;;;;;;14.10;12.50;;;;;;;12.81;100.00;97701.04;110452;1241;68481;-66
2023/07/10 03:24:44;;;;;;;13.40;11.80;;;;;;;12.78;100.00;97700.73;110406;1241;59675;-64
2023/07/10 03:27:13;;;;;;;11.60;10.30;;;;;;;12.81;100.00;97699.98;110421;1241;59672;-66
2023/07/10 03:29:42;;;;;;;12.00;10.70;;;;;;;12.85;100.00;97701.60;110441;1240;71363;-66
2023/07/10 03:32:12;;;;;;;10.00;8.70;;;;;;;12.89;100.00;97694.77;110359;1241;69827;-64
2023/07/10 03:34:41;;;;;;;10.90;9.70;;;;;;;12.94;100.00;97692.65;110358;1241;69282;-64
2023/07/10 03:37:10;;;;;;;11.00;9.80;;;;;;;13.00;100.00;97696.91;110421;1241;59694;-65
2023/07/10 03:39:40;;;;;;;11.40;10.20;;;;;;;13.06;100.00;97698.73;110467;1239;59663;-66
2023/07/10 03:42:08;;;;;;;11.50;10.30;;;;;;;13.13;100.00;97696.70;110470;1241;71384;-64
2023/07/10 03:44:37;;;;;;;11.20;9.80;;;;;;;13.34;100.00;97696.01;110455;1241;69278;-64
2023/07/10 03:47:05;;;;;;;11.00;9.90;;;;;;;13.44;100.00;97698.34;110415;1241;68269;-64
2023/07/10 03:49:35;;;;;;;12.40;11.10;;;;;;;13.52;100.00;97696.80;110442;1242;59640;-64
2023/07/10 03:52:04;;;;;;;14.40;11.50;;;;;;;13.60;100.00;97696.38;110366;1241;59734;-64
2023/07/10 03:54:33;;;;;;;12.60;11.30;;;;;;;13.66;100.00;97695.86;110355;1241;70501;-65
2023/07/10 03:57:01;;;;;;;13.60;12.00;;;;;;;13.74;100.00;97702.08;110427;1241;69119;-65
2023/07/10 03:59:29;;;;;;;13.30;11.90;;;;;;;13.80;100.00;97698.64;110372;1241;69827;-64
2023/07/10 04:01:58;;;;;;;13.10;11.70;;;;;;;13.82;100.00;97700.23;110301;1241;59676;-65
2023/07/10 04:04:26;;;;;;;13.40;12.00;;;;;;;13.79;100.00;97697.45;110373;1242;59684;-65
2023/07/10 04:06:54;;;;;;;10.90;9.80;;;;;;;13.84;100.00;97697.38;110425;1239;71273;-64
2023/07/10 04:09:23;;;;;;;12.60;11.40;;;;;;;14.06;100.00;97697.73;110481;1241;69205;-65
2023/07/10 04:11:51;;;;;;;12.70;11.30;;;;;;;14.20;100.00;97701.27;109935;1241;808135;-65
2023/07/10 04:14:20;;;;;;;10.10;9.00;;;;;;;14.28;100.00;97700.77;110556;1248;59714;-65
2023/07/10 04:16:54;;;;;;;11.70;10.30;;;;;;;14.35;100.00;97701.13;110616;1241;59692;-65
2023/07/10 04:19:23;;;;;;;11.50;10.30;;;;;;;14.32;100.00;97704.84;110609;1240;70702;-65
2023/07/10 04:21:52;;;;;;;11.20;9.80;;;;;;;14.39;100.00;97704.25;110251;1245;69313;-65
2023/07/10 04:24:20;;;;;;;10.70;9.60;;;;;;;14.48;100.00;97703.88;110594;1243;68314;-64
2023/07/10 04:26:49;;;;;;;13.00;11.70;;;;;;;14.67;100.00;97698.10;110596;1238;59691;-64
2023/07/10 04:29:18;;;;;;;13.70;12.10;;;;;;;14.73;100.00;97696.28;110585;1240;59724;-65
2023/07/10 04:31:47;;;;;;;10.90;9.80;;;;;;;14.87;100.00;97699.91;110561;1243;71731;-64
2023/07/10 04:34:16;;;;;;;12.70;11.10;;;;;;;14.93;100.00;97701.78;110551;1241;68508;-64
2023/07/10 04:36:45;;;;;;;12.80;11.00;;;;;;;15.02;100.00;97700.11;110509;1241;68396;-64
2023/07/10 04:39:14;;;;;;;11.60;10.50;;;;;;;15.12;100.00;97699.86;110463;1241;59734;-64
2023/07/10 04:41:44;;;;;;;12.50;10.00;;;;;;;15.27;100.00;97700.04;110497;1241;59734;-65
2023/07/10 04:44:12;;;;;;;10.70;9.20;;;;;;;15.38;100.00;97706.31;110474;1241;70442;-65
2023/07/10 04:46:41;;;;;;;12.80;11.60;;;;;;;15.49;100.00;97704.44;110500;1241;68571;-65
2023/07/10 04:49:09;;;;;;;12.90;11.30;;;;;;;15.68;100.00;97707.34;110630;1243;69893;-66
2023/07/10 04:51:38;;;;;;;12.50;10.60;;;;;;;15.87;100.00;97708.30;110576;1238;59750;-65
2023/07/10 04:54:06;;;;;;;11.90;10.70;;;;;;;16.00;100.00;97709.26;110593;1241;59721;-66
2023/07/10 04:56:35;;;;;;;11.60;10.50;;;;;;;16.12;100.00;97706.23;110469;1240;71531;-65
2023/07/10 04:59:04;;;;;;;12.60;11.40;;;;;;;16.26;100.00;97700.20;110724;1237;68709;-65
2023/07/10 05:01:33;;;;;;;11.20;10.00;;;;;;;16.30;100.00;97698.45;110616;1239;68205;-65
2023/07/10 05:04:02;;;;;;;9.60;8.70;;;;;;;16.41;100.00;97696.19;110675;1241;59677;-65
2023/07/10 05:06:30;;;;;;;11.10;9.90;;;;;;;16.57;100.00;97691.90;110669;1242;59636;-65
2023/07/10 05:08:59;;;;;;;10.40;9.50;;;;;;;16.69;100.00;97689.77;110517;1243;71407;-65
2023/07/10 05:11:30;;;;;;;9.50;8.50;;;;;;;16.81;100.00;97687.08;110323;1244;69879;-65
2023/07/10 05:13:59;;;;;;;10.70;9.60;;;;;;;16.99;100.00;97687.44;110456;1238;70284;-63
2023/07/10 05:16:30;;;;;;;8.90;8.10;;;;;;;17.45;99.87;97689.99;110413;1238;59692;-64
2023/07/10 05:18:58;;;;;;;10.70;7.70;;;;;;;17.93;100.00;97686.89;110616;1238;59679;-64
2023/07/10 05:21:26;;;;;;;9.10;8.10;;;;;;;18.41;97.74;97687.79;110499;1239;71466;-63
2023/07/10 05:23:55;;;;;;;8.70;7.90;;;;;;;18.87;91.74;97683.50;110609;1239;69776;-64
2023/07/10 05:26:22;;;;;;;7.70;7.00;;;;;;;19.33;89.56;97689.25;110530;1239;69881;-65
2023/07/10 05:28:50;;;;;;;7.40;6.70;;;;;;;19.79;87.64;97694.02;110565;1239;59750;-64
2023/07/10 05:31:19;;;;;;;7.90;7.10;;;;;;;19.99;83.41;97694.00;110497;1238;59726;-64
2023/07/10 05:33:48;;;;;;;7.00;6.40;;;;;;;20.23;82.22;97694.64;110628;1239;72729;-64
2023/07/10 05:36:17;;;;;;;6.60;6.00;;;;;;;20.34;80.12;97697.66;110577;1238;69268;-64
2023/07/10 05:38:48;;;;;;;6.20;5.60;;;;;;;20.31;78.84;97696.10;110673;1238;68429;-64
2023/07/10 05:41:19;;;;;;;7.60;6.90;;;;;;;20.16;78.96;97697.55;110508;1240;59772;-65
2023/07/10 05:43:47;;;;;;;8.00;6.50;;;;;;;20.15;79.05;97703.50;110382;1241;59686;-65
2023/07/10 05:46:16;;;;;;;7.00;6.20;;;;;;;20.10;79.49;97702.20;110393;1241;71392;-65
2023/07/10 05:48:43;;;;;;;8.00;6.30;;;;;;;20.26;80.62;97700.67;110560;1238;68300;-64
2023/07/10 05:51:11;;;;;;;7.20;6.50;;;;;;;20.42;79.81;97695.45;110534;1245;69299;-64
2023/07/10 05:53:39;;;;;;;6.80;6.10;;;;;;;20.49;79.43;97693.09;110535;1239;59750;-64
2023/07/10 05:56:08;;;;;;;7.40;6.20;;;;;;;20.48;79.56;97695.09;110557;1241;59750;-64
2023/07/10 05:58:40;;;;;;;7.30;6.00;;;;;;;20.60;79.75;97698.13;110456;1238;70683;-64
2023/07/10 06:01:10;;;;;;;7.40;6.70;;;;;;;20.65;78.56;97694.56;110558;1241;69240;-64
2023/07/10 06:03:38;;;;;;;8.10;6.90;;;;;;;20.50;79.41;97688.73;110576;1239;68725;-64
2023/07/10 06:06:06;;;;;;;7.80;6.30;;;;;;;20.60;80.27;97684.98;110533;1241;59737;-64
2023/07/10 06:08:35;;;;;;;7.70;7.00;;;;;;;20.72;79.67;97687.22;110465;1241;59672;-64
2023/07/10 06:11:04;;;;;;;7.60;6.80;;;;;;;20.70;79.89;97684.88;110534;1241;71804;-69
2023/07/10 06:13:32;;;;;;;;;;;;;;;20.75;79.51;97689.30;110644;1241;69496;-67
2023/07/10 06:16:06;;;;;;;7.90;6.70;;;;;;;20.89;78.85;97682.16;110574;1240;69219;-67
2023/07/10 06:18:34;;;;;;;6.20;5.60;;;;;;;21.03;78.48;97683.45;110515;1239;59818;-67
2023/07/10 06:21:04;;;;;;;7.40;6.70;;;;;;;21.23;76.73;97690.33;110586;1240;59682;-67
2023/07/10 06:23:32;;;;;;;6.90;6.20;;;;;;;21.34;74.63;97692.88;110598;1240;71380;-67
2023/07/10 06:26:00;;;;;;;8.70;7.30;;;;;;;21.49;73.33;97688.20;110443;1241;69731;-67
2023/07/10 06:28:30;;;;;;;6.40;5.80;;;;;;;21.90;71.59;97690.72;110477;1241;69783;-66
2023/07/10 06:31:01;;;;;;;8.30;7.00;;;;;;;22.26;71.77;97688.42;110606;1241;59778;-66
2023/07/10 06:33:31;;;;;;;6.50;6.00;;;;;;;22.58;67.66;97687.13;110540;1238;60134;-67
2023/07/10 06:35:59;;;;;;;6.50;5.90;;;;;;;22.76;65.92;97682.50;110614;1238;71447;-67
2023/07/10 06:38:27;;;;;;;9.60;6.70;;;;;;;23.24;67.42;97678.23;110591;1240;68786;-67
2023/07/10 06:40:56;;;;;;;8.20;6.20;;;;;;;23.54;65.84;97675.99;110418;1241;69557;-67
2023/07/10 06:43:24;;;;;;;6.30;5.70;;;;;;;23.89;63.24;97677.97;110468;1239;59769;-67
2023/07/10 06:45:55;;;;;;;6.20;5.60;;;;;;;23.87;62.57;97675.77;110607;1243;59669;-67
2023/07/10 06:48:23;;;;;;;7.40;6.80;;;;;;;24.24;62.35;97678.03;110412;1241;71960;-67
2023/07/10 06:50:55;;;;;;;6.80;6.00;;;;;;;24.42;58.78;97666.98;110478;1238;69910;-67
2023/07/10 06:53:27;;;;;;;6.20;5.20;;;;;;;24.67;57.80;97665.70;110529;1240;69899;-67
2023/07/10 06:55:58;;;;;;;6.50;5.90;;;;;;;24.81;57.65;97663.17;110470;1238;59679;-67
2023/07/10 06:58:27;;;;;;;7.10;6.30;;;;;;;25.01;56.41;97663.00;110546;1240;59671;-68
2023/07/10 07:00:55;;;;;;;7.10;6.40;;;;;;;25.22;55.84;97664.26;110614;1241;71968;-68
2023/07/10 07:03:24;;;;;;;7.30;6.50;;;;;;;25.23;55.30;97661.63;110605;1240;69841;-68
2023/07/10 07:05:52;;;;;;;6.70;6.00;;;;;;;25.09;54.34;97663.73;110566;1241;69840;-68
2023/07/10 07:08:22;;;;;;;7.60;6.00;;;;;;;25.04;54.12;97661.84;110474;1243;59677;-68
2023/07/10 07:10:51;;;;;;;8.50;7.50;;;;;;;25.31;53.16;97660.49;110470;1241;60072;-69
2023/07/10 07:13:20;;;;;;;7.10;6.40;;;;;;;25.18;51.49;97657.73;110408;1241;72018;-69
2023/07/10 07:15:51;;;;;;;6.90;6.20;;;;;;;25.44;51.29;97658.14;110501;1241;68470;-69
2023/07/10 07:18:21;;;;;;;8.10;6.10;;;;;;;25.63;50.07;97657.61;110423;1241;69132;-68
2023/07/10 07:20:49;;;;;;;6.60;5.30;;;;;;;26.05;50.80;97655.66;110378;1238;59669;-69
2023/07/10 07:23:17;;;;;;;7.00;6.40;;;;;;;26.45;49.99;97652.13;110661;1241;59675;-69
2023/07/10 07:25:45;;;;;;;6.90;5.60;;;;;;;26.55;49.15;97651.67;110568;1238;72314;-70
2023/07/10 07:28:14;;;;;;;6.90;6.20;;;;;;;26.87;47.64;97654.65;110526;1239;69197;-68
2023/07/10 07:30:47;;;;;;;8.40;6.60;;;;;;;27.27;48.54;97654.52;110635;1239;68895;-68
2023/07/10 07:33:17;;;;;;;8.50;7.70;;;;;;;27.75;46.89;97656.98;110434;1243;59715;-68
2023/07/10 07:35:47;;;;;;;8.60;7.40;;;;;;;27.50;45.00;97655.82;110627;1241;59682;-68
2023/07/10 07:38:16;;;;;;;8.70;7.50;;;;;;;27.23;45.56;97654.66;110522;1238;71898;-68
2023/07/10 07:40:44;;;;;;;6.80;6.20;;;;;;;26.96;45.98;97651.83;110561;1241;70038;-67
2023/07/10 07:43:12;;;;;;;7.00;6.30;;;;;;;27.17;46.42;97649.05;110468;1242;69208;-70
2023/07/10 07:45:48;;;;;;;7.60;6.80;;;;;;;27.62;45.24;97650.97;110595;1240;59660;-69
2023/07/10 07:48:16;;;;;;;10.40;8.30;;;;;;;27.78;44.78;97648.14;110622;1241;59669;-69
2023/07/10 07:50:56;;;;;;;7.20;6.60;;;;;;;27.79;44.99;97649.98;110583;1240;72363;-70
2023/07/10 07:53:23;;;;;;;7.80;7.10;;;;;;;27.32;46.27;97644.63;110561;1241;69159;-70
2023/07/10 07:55:51;;;;;;;10.00;9.10;;;;;;;27.36;45.42;97650.25;110396;1241;69851;-69
2023/07/10 07:58:20;;;;;;;8.80;7.90;;;;;;;27.30;45.11;97646.75;110522;1239;59701;-69
2023/07/10 08:00:49;;;;;;;7.80;7.10;;;;;;;27.36;46.33;97644.46;110440;1238;59695;-68
2023/07/10 08:03:17;;;;;;;11.70;9.00;;;;;;;27.68;44.29;97642.18;110508;1240;70630;-68
2023/07/10 08:05:45;;;;;;;10.50;8.40;;;;;;;27.95;44.70;97642.64;110531;1238;69243;-70
2023/07/10 08:08:14;;;;;;;12.20;11.00;;;;;;;27.99;44.99;97644.37;110344;1241;68404;-69
2023/07/10 08:10:48;;;;;;;10.50;9.50;;;;;;;28.07;43.48;97642.21;110231;1241;59724;-69
2023/07/10 08:13:19;;;;;;;10.20;9.10;;;;;;;27.50;45.50;97640.62;110353;1241;59651;-68
2023/07/10 08:15:46;;;;;;;10.00;8.20;;;;;;;27.77;45.45;97639.04;110376;1241;70665;-70
2023/07/10 08:18:15;;;;;;;8.20;7.50;;;;;;;28.26;44.08;97635.09;110203;1241;69652;-69
2023/07/10 08:20:43;;;;;;;8.40;7.60;;;;;;;28.39;42.11;97629.13;110449;1241;69139;-69
2023/07/10 08:23:10;;;;;;;9.60;8.60;;;;;;;28.46;42.44;97627.30;110472;1241;59698;-69
2023/07/10 08:25:38;;;;;;;8.60;7.80;;;;;;;28.99;42.61;97623.53;110384;1241;59711;-70
2023/07/10 08:28:06;;;;;;;7.60;6.90;;;;;;;28.79;43.48;97623.83;110445;1242;71786;-69
2023/07/10 08:30:34;;;;;;;8.60;7.70;;;;;;;29.22;42.89;97619.11;110385;1242;69803;-68
2023/07/10 08:33:02;;;;;;;7.30;6.20;;;;;;;28.88;43.45;97619.33;110322;1241;69272;-67
2023/07/10 08:35:29;;;;;;;9.10;6.80;;;;;;;29.35;44.75;97619.20;110410;1242;59750;-69
2023/07/10 08:37:57;;;;;;;6.30;5.70;;;;;;;29.56;42.48;97620.14;110347;1242;59643;-68
2023/07/10 08:40:33;;;;;;;5.80;5.30;;;;;;;29.93;43.88;97618.27;110530;1241;71988;-69
2023/07/10 08:43:24;;;;;;;5.60;5.10;;;;;;;30.03;40.76;97616.58;110504;1240;69302;-69
2023/07/10 08:45:59;;;;;;;5.30;4.80;;;;;;;30.70;41.95;97613.54;110289;1241;68316;-69
2023/07/10 08:48:33;;;;;;;5.10;4.70;;;;;;;31.11;40.35;97611.55;110349;1240;59735;-70
2023/07/10 08:51:17;;;;;;;5.90;4.80;;;;;;;30.58;39.84;97608.40;110355;1241;60062;-69
2023/07/10 08:53:51;;;;;;;4.80;4.30;;;;;;;31.29;40.55;97613.15;110416;1241;71964;-69
2023/07/10 08:56:33;;;;;;;5.20;4.70;;;;;;;31.07;38.30;97617.27;110495;1241;69334;-69
2023/07/10 08:59:20;;;;;;;5.10;4.60;;;;;;;31.00;38.86;97617.41;110274;1248;69833;-70
2023/07/10 09:01:48;;;;;;;4.20;3.80;;;;;;;30.96;38.35;97612.13;110299;1241;60084;-69
2023/07/10 09:04:19;;;;;;;4.10;3.70;;;;;;;31.26;38.06;97610.73;110345;1241;59646;-70
2023/07/10 09:06:51;;;;;;;4.80;4.40;;;;;;;31.55;36.69;97607.43;110419;1242;71465;-71
2023/07/10 09:09:30;;;;;;;4.80;4.00;;;;;;;31.70;36.15;97606.77;110397;1242;68859;-68
2023/07/10 09:12:00;;;;;;;;;;;;;;;31.32;36.02;97601.83;110307;1241;69846;-69
2023/07/10 09:14:43;;;;;;;5.10;3.90;;;;;;;30.24;36.67;97598.27;110324;1241;59699;-69
2023/07/10 09:17:19;;;;;;;5.10;4.10;;;;;;;30.47;37.10;97593.85;110397;1241;59675;-70
2023/07/10 09:19:53;;;;;;;4.20;3.80;;;;;;;31.21;36.96;97596.20;110378;1241;71234;-70
2023/07/10 09:22:21;;;;;;;4.40;4.00;;;;;;;30.98;36.19;97587.14;110371;1241;69900;-70
2023/07/10 09:24:48;;;;;;;4.70;4.30;;;;;;;30.84;37.10;97581.63;110527;1242;70122;-69
2023/07/10 09:27:16;;;;;;;4.60;3.90;;;;;;;30.68;37.01;97582.41;110448;1242;59756;-69
2023/07/10 09:29:49;;;;;;;4.30;3.60;;;;;;;31.44;37.88;97589.05;110417;1242;59704;-69
2023/07/10 09:32:19;;;;;;;3.90;3.60;;;;;;;31.88;37.26;97590.90;110378;1241;72077;-70
2023/07/10 09:34:58;;;;;;;4.30;3.50;;;;;;;32.32;35.57;97585.70;110469;1242;68151;-69
2023/07/10 09:37:33;;;;;;;4.30;3.60;;;;;;;32.14;34.69;97583.84;110462;1241;68920;-69
2023/07/10 09:40:40;;;;;;;5.10;3.60;;;;;;;32.25;35.63;97580.90;110473;1241;59677;-70
2023/07/10 09:43:20;;;;;;;4.00;3.60;;;;;;;32.68;34.81;97573.39;110457;1241;59679;-70
2023/07/10 09:45:51;;;;;;;3.30;3.00;;;;;;;33.30;35.23;97569.55;110397;1242;71930;-69
2023/07/10 09:48:31;;;;;;;4.50;4.10;;;;;;;33.61;33.55;97570.13;110378;1242;69656;-69
2023/07/10 09:51:12;;;;;;;3.60;3.10;;;;;;;33.25;33.51;97571.11;110314;1242;69708;-70
2023/07/10 09:53:45;;;;;;;4.20;3.50;;;;;;;33.29;32.96;97570.02;110401;1242;59742;-70
2023/07/10 09:56:24;;;;;;;3.60;3.30;;;;;;;33.54;32.55;97569.46;110355;1241;59630;-70
2023/07/10 09:58:54;;;;;;;3.70;3.20;;;;;;;33.61;32.28;97565.30;110359;1241;70535;-70
2023/07/10 10:01:30;;;;;;;4.30;3.90;;;;;;;33.68;31.65;97561.20;110322;1241;69988;-69
2023/07/10 10:04:03;;;;;;;4.00;3.60;;;;;;;33.41;31.78;97559.83;110393;1241;69944;-69
2023/07/10 10:06:32;;;;;;;4.00;3.70;;;;;;;32.91;31.95;97548.71;110350;1242;59736;-69
2023/07/10 10:09:13;;;;;;;4.90;4.20;;;;;;;32.89;32.15;97552.64;110334;1242;59669;-69
2023/07/10 10:11:48;;;;;;;4.20;3.80;;;;;;;32.85;33.63;97552.65;110415;1241;71223;-69
2023/07/10 10:14:21;;;;;;;5.50;3.80;;;;;;;32.96;32.47;97551.81;110316;1242;70620;-69
2023/07/10 10:16:55;;;;;;;3.70;3.40;;;;;;;32.68;32.91;97546.66;110438;1238;69259;-68
2023/07/10 10:19:30;;;;;;;4.30;3.90;;;;;;;32.35;33.57;97551.09;110319;1242;59705;-71
2023/07/10 10:21:58;;;;;;;4.70;3.70;;;;;;;32.25;34.12;97548.17;110345;1242;59665;-72
2023/07/10 10:24:29;;;;;;;4.80;3.90;;;;;;;32.15;34.19;97546.44;110469;1241;71974;-74
2023/07/10 10:27:23;;;;;;;3.90;3.60;;;;;;;32.09;34.22;97543.39;110334;1242;69809;-72
2023/07/10 10:30:21;;;;;;;4.30;3.60;;;;;;;32.00;34.00;97544.90;110417;1242;69817;-71
2023/07/10 10:33:20;;;;;;;4.20;3.80;;;;;;;32.03;33.85;97543.98;110395;1241;59753;-71
2023/07/10 10:36:19;;;;;;;3.70;3.30;;;;;;;32.16;33.97;97541.98;110181;1244;59713;-70
2023/07/10 10:38:50;;;;;;;;;;;;;;;32.27;35.08;97532.84;110449;1242;71977;-70
2023/07/10 10:41:45;;;;;;;3.80;3.50;;;;;;;32.25;35.37;97528.25;110526;1242;70191;-71
2023/07/10 10:44:47;;;;;;;3.80;3.40;;;;;;;32.19;35.15;97533.37;110360;1241;70345;-71
2023/07/10 10:47:36;;;;;;;5.10;3.90;;;;;;;32.19;35.60;97533.42;110442;1242;59660;-72
2023/07/10 10:50:24;;;;;;;3.70;3.40;;;;;;;32.01;35.51;97532.49;110355;1242;59735;-71
2023/07/10 10:53:12;;;;;;;4.50;4.10;;;;;;;31.82;35.27;97530.66;110405;1241;71990;-71
2023/07/10 10:55:49;;;;;;;5.60;3.60;;;;;;;31.91;35.94;97528.16;110347;1242;69339;-71
2023/07/10 10:58:25;;;;;;;4.50;3.70;;;;;;;31.98;36.24;97523.23;110348;1242;69264;-71
2023/07/10 11:01:11;;;;;;;4.90;4.10;;;;;;;31.91;36.01;97524.05;110324;1242;60086;-71
2023/07/10 11:04:11;;;;;;;4.20;3.60;;;;;;;31.95;36.29;97520.02;110379;1240;59673;-71
2023/07/10 11:07:11;;;;;;;3.90;3.50;;;;;;;32.28;35.45;97514.90;109883;1247;71982;-71
2023/07/10 11:09:46;;;;;;;4.60;4.00;;;;;;;32.38;35.27;97502.71;110146;1242;69762;-70
2023/07/10 11:12:23;;;;;;;4.10;3.70;;;;;;;32.26;35.20;97502.11;110300;1242;69165;-71
2023/07/10 11:14:55;;;;;;;4.30;3.70;;;;;;;32.04;35.68;97499.66;110350;1242;59685;-71
2023/07/10 11:17:24;;;;;;;4.30;3.90;;;;;;;32.05;35.78;97498.86;110458;1241;59678;-71
2023/07/10 11:19:53;;;;;;;5.20;4.00;;;;;;;32.21;35.28;97492.58;110356;1242;71458;-71
2023/07/10 11:22:29;;;;;;;4.10;3.70;;;;;;;32.22;35.33;97493.39;110335;1241;69872;-72
2023/07/10 11:24:57;;;;;;;4.10;3.70;;;;;;;32.51;34.91;97491.38;110414;1242;67540;-71
2023/07/10 11:27:34;;;;;;;5.80;4.30;;;;;;;32.67;35.72;97487.80;110391;1241;59683;-71
2023/07/10 11:30:10;;;;;;;5.40;4.00;;;;;;;32.55;34.07;97492.64;110488;1242;59676;-72
2023/07/10 11:33:01;;;;;;;4.50;4.10;;;;;;;32.30;34.17;97483.89;110436;1239;71983;-70
2023/07/10 11:35:30;;;;;;;4.20;3.80;;;;;;;32.58;34.20;97487.05;110335;1241;69136;-70
2023/07/10 11:38:04;;;;;;;4.10;3.70;;;;;;;32.74;35.03;97489.04;110387;1243;69997;-71
2023/07/10 11:40:41;;;;;;;3.80;3.40;;;;;;;32.56;34.69;97482.74;110474;1242;59681;-72
2023/07/10 11:43:27;;;;;;;4.30;3.80;;;;;;;32.09;33.74;97480.20;110525;1241;59763;-71